Time;durP1;ratioP1;P1;durP2;ratioP2;P2;SDS_P1;SDS_P2;PMS_P1;PMS_P2;Temp;Humidity;BMP_temperature;BMP_pressure;BME280_temperature;BME280_humidity;BME280_pressure;Samples;Min_cycle;Max_cycle;Signal;HPM_P1;HPM_P2
2022/02/11 00:00:39;;;;;;;20.17;11.10;;;;;;;;;;772120;177;918121;-62
2022/02/11 00:05:27;;;;;;;22.07;12.60;;;;;;;;;;775008;180;919689;-61
2022/02/11 00:07:32;;;;;;;22.60;12.20;;;;;;;;;;770726;178;919774;-61
2022/02/11 00:09:58;;;;;;;20.90;11.57;;;;;;;;;;764436;180;920098;-62
2022/02/11 00:12:24;;;;;;;19.47;12.23;;;;;;;;;;759168;181;919692;-61
2022/02/11 00:15:03;;;;;;;14.50;10.40;;;;;;;;;;772846;180;919348;-61
2022/02/11 00:17:18;;;;;;;18.50;11.60;;;;;;;;;;777959;180;918989;-60
2022/02/11 00:19:44;;;;;;;18.03;10.40;;;;;;;;;;776348;178;919050;-62
2022/02/11 00:22:11;;;;;;;18.00;10.60;;;;;;;;;;777141;178;918616;-61
2022/02/11 00:24:36;;;;;;;18.23;11.53;;;;;;;;;;778645;180;917686;-62
2022/02/11 00:32:26;;;;;;;21.37;11.53;;;;;;;;;;777058;177;914768;-61
2022/02/11 00:34:50;;;;;;;21.00;12.87;;;;;;;;;;772983;177;916253;-61
2022/02/11 00:37:16;;;;;;;15.97;10.53;;;;;;;;;;776250;180;915921;-61
2022/02/11 00:40:04;;;;;;;16.60;10.98;;;;;;;;;;763321;179;919334;-62
2022/02/11 00:53:28;;;;;;;17.27;11.25;;;;;;;;;;765149;180;1738846;-62
2022/02/11 00:53:38;;;;;;;15.53;10.43;;;;;;;;;;765148;181;918739;-61
2022/02/11 01:02:29;;;;;;;21.40;12.57;;;;;;;;;;771469;181;919362;-63
2022/02/11 01:04:48;;;;;;;18.13;10.97;;;;;;;;;;773019;178;920360;-63
2022/02/11 01:07:14;;;;;;;18.17;10.90;;;;;;;;;;771988;180;918788;-62
2022/02/11 01:09:41;;;;;;;17.67;11.77;;;;;;;;;;772451;180;1021400;-63
2022/02/11 01:12:06;;;;;;;13.60;8.37;;;;;;;;;;772441;180;919901;-63
2022/02/11 01:14:36;;;;;;;14.50;9.30;;;;;;;;;;765440;181;919139;-63
2022/02/11 01:17:08;;;;;;;18.03;10.17;;;;;;;;;;774038;178;919492;-62
2022/02/11 01:19:34;;;;;;;16.73;10.63;;;;;;;;;;778163;180;916956;-62
2022/02/11 01:22:20;;;;;;;17.73;11.43;;;;;;;;;;773219;180;1022585;-63
2022/02/11 01:25:00;;;;;;;17.40;10.93;;;;;;;;;;772983;178;919694;-61
2022/02/11 01:32:28;;;;;;;18.70;11.80;;;;;;;;;;778142;180;918908;-62
2022/02/11 01:34:52;;;;;;;15.40;11.03;;;;;;;;;;778067;178;918826;-62
2022/02/11 01:37:23;;;;;;;17.80;12.15;;;;;;;;;;765197;180;919135;-63
2022/02/11 01:40:07;;;;;;;17.10;12.57;;;;;;;;;;765217;180;920407;-63
2022/02/11 01:45:05;;;;;;;21.07;12.93;;;;;;;;;;759459;183;917459;-62
2022/02/11 01:47:30;;;;;;;14.73;9.57;;;;;;;;;;774068;178;921099;-63
2022/02/11 01:52:33;;;;;;;15.93;12.43;;;;;;;;;;771411;179;921038;-62
2022/02/11 01:55:02;;;;;;;16.47;11.73;;;;;;;;;;771673;177;916701;-63
2022/02/11 01:57:33;;;;;;;17.23;12.33;;;;;;;;;;772175;181;919591;-63
2022/02/11 02:00:37;;;;;;;19.55;13.05;;;;;;;;;;774942;180;918902;-62
2022/02/11 02:13:25;;;;;;;19.70;13.70;;;;;;;;;;774629;179;920105;-62
2022/02/11 02:19:02;;;;;;;22.30;13.50;;;;;;;;;;777465;178;918687;-63
2022/02/11 02:21:34;;;;;;;19.10;12.80;;;;;;;;;;775639;179;915018;-63
2022/02/11 02:26:16;;;;;;;22.63;13.67;;;;;;;;;;773475;180;915600;-62
2022/02/11 02:30:27;;;;;;;21.90;14.03;;;;;;;;;;774274;177;919106;-62
2022/02/11 02:32:25;;;;;;;28.23;15.95;;;;;;;;;;769568;179;918626;-62
2022/02/11 02:34:10;;;;;;;19.47;13.83;;;;;;;;;;772092;179;918796;-63
2022/02/11 02:36:39;;;;;;;24.83;14.35;;;;;;;;;;769769;178;922253;-62
2022/02/11 02:56:56;;;;;;;27.47;14.53;;;;;;;;;;776353;180;919561;-63
2022/02/11 02:59:50;;;;;;;21.60;13.83;;;;;;;;;;773224;180;919782;-61
2022/02/11 03:02:07;;;;;;;19.60;12.70;;;;;;;;;;762899;177;910222;-61
2022/02/11 03:14:55;;;;;;;29.40;15.10;;;;;;;;;;772329;179;919284;-62
2022/02/11 03:17:49;;;;;;;21.37;13.23;;;;;;;;;;760128;184;918827;-62
2022/02/11 03:35:13;;;;;;;19.13;12.13;;;;;;;;;;768466;178;920424;-62
2022/02/11 03:50:39;;;;;;;20.83;11.03;;;;;;;;;;776415;178;918132;-62
2022/02/11 03:55:52;;;;;;;27.00;11.60;;;;;;;;;;774579;179;918870;-62
2022/02/11 03:58:05;;;;;;;19.07;12.60;;;;;;;;;;774239;180;919339;-61
2022/02/11 04:23:31;;;;;;;18.33;12.13;;;;;;;;;;772886;180;919893;-61
2022/02/11 04:26:14;;;;;;;15.17;11.27;;;;;;;;;;772166;180;918786;-61
2022/02/11 04:52:39;;;;;;;17.73;10.87;;;;;;;;;;778425;181;919673;-61
2022/02/11 04:56:10;;;;;;;19.20;12.57;;;;;;;;;;764643;180;918549;-61
2022/02/11 05:01:07;;;;;;;22.90;12.50;;;;;;;;;;767111;181;917940;-60
2022/02/11 05:03:33;;;;;;;14.90;10.00;;;;;;;;;;778334;180;917375;-61
2022/02/11 05:05:59;;;;;;;16.07;12.00;;;;;;;;;;773559;178;919048;-62
2022/02/11 05:08:25;;;;;;;18.10;11.87;;;;;;;;;;777351;179;917801;-62
2022/02/11 05:10:50;;;;;;;21.47;12.33;;;;;;;;;;775602;180;920844;-61
2022/02/11 05:13:16;;;;;;;20.80;13.00;;;;;;;;;;771660;178;919706;-62
2022/02/11 05:15:42;;;;;;;20.03;12.43;;;;;;;;;;780259;180;615554;-61
2022/02/11 05:18:08;;;;;;;17.33;11.20;;;;;;;;;;777282;180;626100;-62
2022/02/11 05:20:34;;;;;;;19.47;12.93;;;;;;;;;;774302;180;626164;-62
2022/02/11 05:23:00;;;;;;;16.27;10.10;;;;;;;;;;781791;180;902756;-62
2022/02/11 05:25:25;;;;;;;15.93;10.23;;;;;;;;;;779521;180;624949;-62
2022/02/11 05:27:51;;;;;;;16.43;11.60;;;;;;;;;;771450;180;629789;-62
2022/02/11 05:30:17;;;;;;;17.00;11.07;;;;;;;;;;774875;178;923064;-60
2022/02/11 05:32:43;;;;;;;13.80;11.50;;;;;;;;;;777817;180;920787;-61
2022/02/11 05:35:09;;;;;;;15.10;10.77;;;;;;;;;;771200;180;919086;-61
2022/02/11 05:37:35;;;;;;;19.23;12.57;;;;;;;;;;769949;180;920013;-61
2022/02/11 05:40:01;;;;;;;16.13;10.53;;;;;;;;;;778267;177;626090;-62
2022/02/11 05:42:28;;;;;;;16.70;11.37;;;;;;;;;;767831;180;919035;-62
2022/02/11 05:44:52;;;;;;;15.75;10.55;;;;;;;;;;773124;180;1016900;-61
2022/02/11 05:47:18;;;;;;;12.63;9.60;;;;;;;;;;779744;178;920811;-61
2022/02/11 05:49:44;;;;;;;16.23;10.60;;;;;;;;;;768098;180;918824;-61
2022/02/11 05:52:10;;;;;;;17.30;11.10;;;;;;;;;;765122;181;919067;-60
2022/02/11 05:54:36;;;;;;;19.03;11.53;;;;;;;;;;780119;179;626772;-61
2022/02/11 05:57:02;;;;;;;19.00;12.63;;;;;;;;;;778837;180;637821;-62
2022/02/11 05:59:28;;;;;;;15.80;11.70;;;;;;;;;;776913;177;919083;-61
2022/02/11 06:01:53;;;;;;;15.93;11.30;;;;;;;;;;776455;177;918675;-61
2022/02/11 06:04:21;;;;;;;16.30;10.40;;;;;;;;;;770029;180;920268;-62
2022/02/11 06:06:45;;;;;;;21.57;14.30;;;;;;;;;;773399;178;917307;-61
2022/02/11 06:09:11;;;;;;;20.00;11.87;;;;;;;;;;775940;178;917464;-61
2022/02/11 06:11:37;;;;;;;17.10;11.80;;;;;;;;;;775210;178;921580;-61
2022/02/11 06:14:03;;;;;;;22.80;12.27;;;;;;;;;;773119;179;919964;-62
2022/02/11 06:16:28;;;;;;;23.50;11.90;;;;;;;;;;772014;178;916338;-61
2022/02/11 06:18:54;;;;;;;19.23;13.73;;;;;;;;;;780060;180;921078;-60
2022/02/11 06:21:21;;;;;;;20.27;13.80;;;;;;;;;;775902;179;919138;-61
2022/02/11 06:23:46;;;;;;;21.73;13.00;;;;;;;;;;777345;177;922811;-62
2022/02/11 06:26:12;;;;;;;17.17;11.43;;;;;;;;;;769253;180;1018964;-61
2022/02/11 06:28:38;;;;;;;22.33;13.30;;;;;;;;;;763940;184;917624;-61
2022/02/11 06:31:04;;;;;;;16.30;12.40;;;;;;;;;;763959;180;922069;-61
2022/02/11 06:33:29;;;;;;;20.83;13.30;;;;;;;;;;764157;180;910060;-61
2022/02/11 06:35:56;;;;;;;20.23;13.10;;;;;;;;;;773264;177;915772;-62
2022/02/11 06:38:21;;;;;;;22.67;13.70;;;;;;;;;;777307;180;914556;-62
2022/02/11 06:40:47;;;;;;;19.17;13.40;;;;;;;;;;779399;178;628079;-61
2022/02/11 06:43:14;;;;;;;21.93;14.30;;;;;;;;;;774913;180;814102;-61
2022/02/11 06:45:39;;;;;;;20.20;13.40;;;;;;;;;;772691;177;915863;-62
2022/02/11 06:48:05;;;;;;;20.27;12.93;;;;;;;;;;774742;178;915816;-61
2022/02/11 06:50:30;;;;;;;21.57;12.43;;;;;;;;;;761221;180;918643;-61
2022/02/11 06:52:56;;;;;;;21.47;12.83;;;;;;;;;;775076;181;915504;-61
2022/02/11 06:55:23;;;;;;;22.73;14.13;;;;;;;;;;775975;177;920031;-60
2022/02/11 06:57:48;;;;;;;24.30;16.50;;;;;;;;;;771359;178;919670;-61
2022/02/11 07:00:14;;;;;;;22.77;14.18;;;;;;;;;;780009;180;919591;-61
2022/02/11 07:02:40;;;;;;;21.67;13.40;;;;;;;;;;774362;180;919417;-61
2022/02/11 07:05:06;;;;;;;19.93;12.90;;;;;;;;;;770714;179;1020968;-62
2022/02/11 07:07:32;;;;;;;25.60;12.70;;;;;;;;;;771049;181;916378;-61
2022/02/11 07:09:58;;;;;;;20.23;11.82;;;;;;;;;;776203;178;915946;-62
2022/02/11 07:12:24;;;;;;;23.60;13.70;;;;;;;;;;771474;177;919563;-60
2022/02/11 07:14:50;;;;;;;21.73;12.90;;;;;;;;;;776395;177;917977;-60
2022/02/11 07:17:15;;;;;;;22.00;13.47;;;;;;;;;;768535;180;915375;-61
2022/02/11 07:19:41;;;;;;;19.90;13.40;;;;;;;;;;760250;184;919785;-61
2022/02/11 07:22:07;;;;;;;18.43;12.07;;;;;;;;;;768267;180;916821;-60
2022/02/11 07:24:33;;;;;;;18.33;12.67;;;;;;;;;;780424;180;920681;-61
2022/02/11 07:26:59;;;;;;;17.23;12.50;;;;;;;;;;772721;178;913731;-61
2022/02/11 07:29:25;;;;;;;19.67;12.13;;;;;;;;;;755377;184;919762;-61
2022/02/11 07:31:51;;;;;;;18.17;10.70;;;;;;;;;;774155;180;915777;-60
2022/02/11 07:34:17;;;;;;;18.37;10.70;;;;;;;;;;763489;178;919795;-61
2022/02/11 07:36:42;;;;;;;15.30;10.70;;;;;;;;;;773374;181;917826;-60
2022/02/11 07:39:08;;;;;;;17.90;11.60;;;;;;;;;;774018;180;915590;-61
2022/02/11 07:41:34;;;;;;;23.57;12.70;;;;;;;;;;769914;180;961707;-60
2022/02/11 07:44:00;;;;;;;19.70;11.00;;;;;;;;;;761626;183;919396;-61
2022/02/11 07:46:26;;;;;;;18.40;11.80;;;;;;;;;;760396;181;915923;-60
2022/02/11 07:48:51;;;;;;;15.30;10.67;;;;;;;;;;775793;180;916086;-60
2022/02/11 07:51:17;;;;;;;18.03;8.70;;;;;;;;;;759077;184;915841;-60
2022/02/11 07:53:45;;;;;;;18.87;11.53;;;;;;;;;;760666;181;917791;-60
2022/02/11 07:56:09;;;;;;;12.70;9.37;;;;;;;;;;772705;179;916256;-60
2022/02/11 07:58:35;;;;;;;15.80;11.07;;;;;;;;;;770091;180;918483;-60
2022/02/11 08:01:01;;;;;;;16.70;9.70;;;;;;;;;;773095;178;916110;-60
2022/02/11 08:03:26;;;;;;;16.00;10.33;;;;;;;;;;779210;178;919177;-61
2022/02/11 08:05:53;;;;;;;11.80;8.80;;;;;;;;;;774149;178;918578;-60
2022/02/11 08:08:21;;;;;;;13.97;9.60;;;;;;;;;;773110;179;916455;-60
2022/02/11 08:10:45;;;;;;;13.90;10.00;;;;;;;;;;767232;177;916575;-59
2022/02/11 08:13:11;;;;;;;23.87;11.50;;;;;;;;;;775394;180;915429;-60
2022/02/11 08:15:37;;;;;;;16.03;11.70;;;;;;;;;;773772;177;916744;-60
2022/02/11 08:18:03;;;;;;;17.83;11.43;;;;;;;;;;772256;179;916391;-60
2022/02/11 08:20:29;;;;;;;15.60;9.87;;;;;;;;;;770537;180;919789;-60
2022/02/11 08:22:55;;;;;;;14.80;9.43;;;;;;;;;;774884;177;916059;-60
2022/02/11 08:25:20;;;;;;;15.03;8.83;;;;;;;;;;764450;181;920887;-60
2022/02/11 08:27:47;;;;;;;12.97;8.03;;;;;;;;;;774731;180;918507;-61
2022/02/11 08:30:14;;;;;;;13.40;8.60;;;;;;;;;;773672;180;918926;-60
2022/02/11 08:32:38;;;;;;;11.37;7.37;;;;;;;;;;771770;179;918344;-61
2022/02/11 08:35:04;;;;;;;10.37;6.53;;;;;;;;;;773003;178;918123;-60
2022/02/11 08:37:30;;;;;;;9.37;7.13;;;;;;;;;;770757;181;917457;-60
2022/02/11 08:39:56;;;;;;;12.50;8.03;;;;;;;;;;766527;177;917447;-60
2022/02/11 08:42:22;;;;;;;10.20;7.13;;;;;;;;;;772672;177;919338;-59
2022/02/11 08:44:48;;;;;;;10.90;7.17;;;;;;;;;;776518;181;917807;-60
2022/02/11 08:47:14;;;;;;;14.70;8.37;;;;;;;;;;766041;180;1121119;-62
2022/02/11 08:49:39;;;;;;;9.55;5.72;;;;;;;;;;773795;177;916353;-60
2022/02/11 08:52:05;;;;;;;8.73;7.10;;;;;;;;;;777614;178;919962;-60
2022/02/11 08:54:31;;;;;;;14.20;7.90;;;;;;;;;;775184;177;921758;-61
2022/02/11 08:56:57;;;;;;;12.10;7.07;;;;;;;;;;770210;180;920650;-60
2022/02/11 08:59:24;;;;;;;11.60;6.93;;;;;;;;;;778221;179;919868;-59
2022/02/11 09:01:49;;;;;;;11.50;6.30;;;;;;;;;;763987;178;918064;-60
2022/02/11 09:04:15;;;;;;;14.50;7.30;;;;;;;;;;766748;182;1022170;-60
2022/02/11 09:06:43;;;;;;;13.40;6.63;;;;;;;;;;773922;181;920013;-60
2022/02/11 09:09:08;;;;;;;12.27;6.93;;;;;;;;;;781254;180;920053;-60
2022/02/11 09:11:33;;;;;;;11.10;6.12;;;;;;;;;;776080;180;920129;-60
2022/02/11 09:13:59;;;;;;;9.30;5.53;;;;;;;;;;765918;180;919281;-60
2022/02/11 09:16:25;;;;;;;11.07;7.13;;;;;;;;;;776483;179;918252;-60
2022/02/11 09:18:51;;;;;;;10.13;6.20;;;;;;;;;;770410;180;922710;-60
2022/02/11 09:21:17;;;;;;;11.30;6.60;;;;;;;;;;776607;177;918857;-60
2022/02/11 09:23:43;;;;;;;8.70;6.03;;;;;;;;;;779813;180;922116;-60
2022/02/11 09:26:10;;;;;;;9.63;5.43;;;;;;;;;;770950;177;1026020;-60
2022/02/11 09:28:36;;;;;;;10.57;6.00;;;;;;;;;;774104;179;918031;-60
2022/02/11 09:31:00;;;;;;;9.93;5.87;;;;;;;;;;776796;177;919868;-60
2022/02/11 09:33:26;;;;;;;10.40;4.50;;;;;;;;;;781587;180;918982;-60
2022/02/11 09:35:52;;;;;;;9.73;6.23;;;;;;;;;;775784;177;919889;-60
2022/02/11 09:38:19;;;;;;;12.40;7.43;;;;;;;;;;772545;177;919292;-60
2022/02/11 09:40:46;;;;;;;10.30;6.37;;;;;;;;;;769253;180;919807;-60
2022/02/11 09:43:12;;;;;;;7.17;5.23;;;;;;;;;;767132;180;919231;-60
2022/02/11 09:45:36;;;;;;;8.10;3.93;;;;;;;;;;776229;180;919384;-60
2022/02/11 09:48:02;;;;;;;8.83;5.80;;;;;;;;;;778261;178;918684;-60
2022/02/11 09:50:29;;;;;;;12.43;6.20;;;;;;;;;;775784;179;917734;-60
2022/02/11 09:52:54;;;;;;;21.17;7.17;;;;;;;;;;773875;177;919425;-60
2022/02/11 09:57:51;;;;;;;12.83;6.70;;;;;;;;;;768228;180;919204;-60
2022/02/11 10:00:17;;;;;;;12.77;6.43;;;;;;;;;;775699;179;918605;-60
2022/02/11 10:02:48;;;;;;;10.30;6.32;;;;;;;;;;771624;177;923949;-60
2022/02/11 10:05:19;;;;;;;12.13;6.37;;;;;;;;;;763631;182;919480;-60
2022/02/11 10:07:45;;;;;;;11.53;6.47;;;;;;;;;;766405;181;918951;-60
2022/02/11 10:10:13;;;;;;;20.35;6.70;;;;;;;;;;775150;180;918430;-59
2022/02/11 10:12:36;;;;;;;8.33;5.00;;;;;;;;;;773476;179;919819;-60
2022/02/11 10:15:02;;;;;;;7.57;4.97;;;;;;;;;;777978;181;921888;-60
2022/02/11 10:17:28;;;;;;;11.10;4.90;;;;;;;;;;777489;178;917288;-60
2022/02/11 10:19:55;;;;;;;12.87;6.40;;;;;;;;;;775114;178;916112;-59
2022/02/11 10:22:20;;;;;;;5.90;3.50;;;;;;;;;;763127;180;1016375;-60
2022/02/11 10:24:46;;;;;;;8.03;5.50;;;;;;;;;;760593;182;917576;-60
2022/02/11 10:27:17;;;;;;;9.30;4.80;;;;;;;;;;763694;181;918740;-60
2022/02/11 10:29:43;;;;;;;8.65;5.60;;;;;;;;;;773552;180;920814;-60
2022/02/11 10:32:09;;;;;;;12.00;5.60;;;;;;;;;;780018;178;855698;-60
2022/02/11 10:34:35;;;;;;;9.68;5.45;;;;;;;;;;767492;180;916335;-61
2022/02/11 10:37:01;;;;;;;10.73;6.20;;;;;;;;;;769885;180;921446;-60
2022/02/11 10:39:27;;;;;;;8.80;5.95;;;;;;;;;;778808;180;926530;-59
2022/02/11 10:41:54;;;;;;;10.03;4.77;;;;;;;;;;775804;176;919842;-61
2022/02/11 10:44:22;;;;;;;6.23;4.00;;;;;;;;;;772618;177;917284;-60
2022/02/11 10:46:46;;;;;;;10.00;6.00;;;;;;;;;;767446;178;918990;-61
2022/02/11 10:49:13;;;;;;;11.50;6.13;;;;;;;;;;766040;181;914944;-60
2022/02/11 10:51:41;;;;;;;10.17;5.63;;;;;;;;;;769752;178;919144;-61
2022/02/11 10:54:13;;;;;;;8.90;5.05;;;;;;;;;;776414;178;920263;-60
2022/02/11 10:56:40;;;;;;;10.10;6.23;;;;;;;;;;777521;179;919735;-60
2022/02/11 10:59:05;;;;;;;10.00;5.70;;;;;;;;;;769212;177;908407;-61
2022/02/11 11:01:32;;;;;;;11.80;6.50;;;;;;;;;;770139;178;909279;-61
2022/02/11 11:03:57;;;;;;;8.50;6.17;;;;;;;;;;767387;180;913923;-60
2022/02/11 11:06:23;;;;;;;12.90;8.00;;;;;;;;;;772848;179;920022;-60
2022/02/11 11:08:49;;;;;;;16.67;6.97;;;;;;;;;;776927;177;919186;-60
2022/02/11 11:11:15;;;;;;;13.60;7.50;;;;;;;;;;771622;177;919389;-61
2022/02/11 11:13:42;;;;;;;14.53;8.60;;;;;;;;;;779642;180;1020567;-61
2022/02/11 11:16:07;;;;;;;13.20;8.80;;;;;;;;;;773849;180;919141;-61
2022/02/11 11:18:33;;;;;;;15.25;9.48;;;;;;;;;;775632;177;919371;-61
2022/02/11 11:21:00;;;;;;;12.00;7.70;;;;;;;;;;773981;179;919424;-61
2022/02/11 11:23:26;;;;;;;13.03;8.07;;;;;;;;;;781015;180;918459;-61
2022/02/11 11:25:52;;;;;;;11.47;7.60;;;;;;;;;;776735;178;919534;-61
2022/02/11 11:28:23;;;;;;;10.50;7.03;;;;;;;;;;772374;180;918021;-62
2022/02/11 11:30:53;;;;;;;13.07;7.70;;;;;;;;;;770615;180;919217;-61
2022/02/11 11:33:18;;;;;;;15.47;8.80;;;;;;;;;;769472;180;920150;-61
2022/02/11 11:36:03;;;;;;;12.20;7.10;;;;;;;;;;774317;178;919154;-61
2022/02/11 11:38:27;;;;;;;11.82;7.45;;;;;;;;;;771572;180;921789;-62
2022/02/11 11:40:58;;;;;;;24.03;9.37;;;;;;;;;;772391;179;919658;-61
2022/02/11 11:43:30;;;;;;;16.33;8.20;;;;;;;;;;775851;180;1021234;-62
2022/02/11 11:46:08;;;;;;;11.90;8.10;;;;;;;;;;778529;181;919566;-61
2022/02/11 11:48:40;;;;;;;13.73;7.70;;;;;;;;;;772160;180;919793;-62
2022/02/11 11:51:05;;;;;;;12.43;7.47;;;;;;;;;;771535;179;919186;-61
2022/02/11 11:53:31;;;;;;;13.93;7.57;;;;;;;;;;763792;180;919755;-61
2022/02/11 11:55:57;;;;;;;12.93;8.73;;;;;;;;;;767382;181;918262;-61
2022/02/11 11:58:33;;;;;;;14.50;9.03;;;;;;;;;;774613;177;918618;-61
2022/02/11 12:00:58;;;;;;;12.53;8.57;;;;;;;;;;775865;180;919423;-61
2022/02/11 12:03:24;;;;;;;14.90;9.57;;;;;;;;;;772871;180;919032;-61
2022/02/11 12:05:55;;;;;;;12.70;9.00;;;;;;;;;;775620;181;920341;-61
2022/02/11 12:08:20;;;;;;;15.90;8.90;;;;;;;;;;776252;179;918760;-61
2022/02/11 12:10:45;;;;;;;15.23;9.00;;;;;;;;;;774908;180;919248;-61
2022/02/11 12:13:12;;;;;;;12.20;8.10;;;;;;;;;;778496;180;1023860;-61
2022/02/11 12:15:38;;;;;;;13.93;8.50;;;;;;;;;;774423;180;919344;-61
2022/02/11 12:18:04;;;;;;;13.60;8.43;;;;;;;;;;770028;180;919297;-61
2022/02/11 12:20:30;;;;;;;13.27;8.57;;;;;;;;;;773838;180;919231;-61
2022/02/11 12:28:11;;;;;;;9.77;7.40;;;;;;;;;;767748;181;919961;-61
2022/02/11 12:30:42;;;;;;;8.60;6.70;;;;;;;;;;772686;180;918262;-61
2022/02/11 12:33:03;;;;;;;14.47;7.20;;;;;;;;;;771660;178;918743;-60
2022/02/11 12:35:28;;;;;;;15.50;7.93;;;;;;;;;;771906;179;919479;-61
2022/02/11 12:37:54;;;;;;;9.63;6.82;;;;;;;;;;765449;181;923860;-61
2022/02/11 12:40:22;;;;;;;6.67;5.00;;;;;;;;;;771457;181;920188;-61
2022/02/11 12:42:46;;;;;;;8.17;4.90;;;;;;;;;;777101;181;918323;-61
2022/02/11 12:45:12;;;;;;;9.20;5.17;;;;;;;;;;767880;178;1019566;-61
2022/02/11 12:47:37;;;;;;;6.80;4.80;;;;;;;;;;770732;177;918552;-61
2022/02/11 12:50:04;;;;;;;4.65;3.12;;;;;;;;;;777416;180;918120;-61
2022/02/11 12:52:30;;;;;;;3.90;1.27;;;;;;;;;;774680;180;919389;-61
2022/02/11 12:54:55;;;;;;;3.90;1.93;;;;;;;;;;773066;180;919163;-62
2022/02/11 12:57:23;;;;;;;3.05;2.00;;;;;;;;;;778167;180;918761;-61
2022/02/11 12:59:49;;;;;;;4.97;2.50;;;;;;;;;;777683;177;919038;-62
2022/02/11 13:02:20;;;;;;;6.43;2.13;;;;;;;;;;764980;177;918923;-63
2022/02/11 13:04:48;;;;;;;4.17;2.20;;;;;;;;;;760384;180;919289;-63
2022/02/11 13:07:14;;;;;;;2.60;2.00;;;;;;;;;;774902;177;918139;-63
2022/02/11 13:09:40;;;;;;;5.20;2.93;;;;;;;;;;776412;179;918706;-62
2022/02/11 13:12:06;;;;;;;3.37;2.17;;;;;;;;;;774826;181;919462;-62
2022/02/11 13:14:33;;;;;;;5.90;2.83;;;;;;;;;;772606;181;919716;-61
2022/02/11 13:16:58;;;;;;;4.17;2.27;;;;;;;;;;776390;180;918959;-61
2022/02/11 13:19:24;;;;;;;4.20;2.87;;;;;;;;;;775720;177;919191;-62
2022/02/11 13:21:50;;;;;;;5.20;3.20;;;;;;;;;;766627;180;920505;-63
2022/02/11 13:24:15;;;;;;;4.10;2.73;;;;;;;;;;770621;181;919160;-61
2022/02/11 13:26:41;;;;;;;6.90;3.80;;;;;;;;;;768092;180;919281;-61
2022/02/11 13:29:11;;;;;;;4.20;2.70;;;;;;;;;;770465;180;919016;-62
2022/02/11 13:31:43;;;;;;;3.90;3.10;;;;;;;;;;775672;180;919984;-61
2022/02/11 13:34:11;;;;;;;3.33;2.40;;;;;;;;;;764879;180;919430;-62
2022/02/11 13:36:36;;;;;;;3.77;2.80;;;;;;;;;;768417;177;917892;-63
2022/02/11 13:39:02;;;;;;;2.35;1.75;;;;;;;;;;772733;178;920123;-61
2022/02/11 13:41:29;;;;;;;2.97;1.90;;;;;;;;;;777223;180;918824;-61
2022/02/11 13:43:55;;;;;;;3.53;2.20;;;;;;;;;;772096;178;919802;-62
2022/02/11 13:46:23;;;;;;;3.17;1.55;;;;;;;;;;772214;180;930323;-63
2022/02/11 13:48:49;;;;;;;3.80;2.20;;;;;;;;;;773603;180;919090;-62
2022/02/11 13:51:17;;;;;;;2.93;2.10;;;;;;;;;;776655;179;919445;-61
2022/02/11 13:53:42;;;;;;;4.80;2.33;;;;;;;;;;761720;180;935679;-61
2022/02/11 13:56:09;;;;;;;2.67;1.80;;;;;;;;;;771860;180;921409;-63
2022/02/11 13:58:35;;;;;;;4.13;2.20;;;;;;;;;;779879;178;918090;-61
2022/02/11 14:01:01;;;;;;;3.27;2.07;;;;;;;;;;768737;180;919536;-66
2022/02/11 14:03:27;;;;;;;2.60;1.73;;;;;;;;;;757001;182;919346;-61
2022/02/11 14:05:53;;;;;;;2.67;1.83;;;;;;;;;;771828;180;1096687;-61
2022/02/11 14:08:19;;;;;;;2.57;1.77;;;;;;;;;;765812;180;918482;-62
2022/02/11 14:10:46;;;;;;;3.33;2.17;;;;;;;;;;765929;181;919391;-63
2022/02/11 14:13:11;;;;;;;5.30;3.37;;;;;;;;;;772732;180;928350;-61
2022/02/11 14:15:36;;;;;;;3.70;2.60;;;;;;;;;;780720;179;890318;-63
2022/02/11 14:18:02;;;;;;;3.80;2.60;;;;;;;;;;776544;180;918921;-63
2022/02/11 14:20:28;;;;;;;5.63;3.07;;;;;;;;;;776892;180;919586;-62
2022/02/11 14:22:54;;;;;;;4.70;3.17;;;;;;;;;;779297;180;919646;-61
2022/02/11 14:25:20;;;;;;;5.77;2.73;;;;;;;;;;773927;180;918512;-61
2022/02/11 14:27:46;;;;;;;5.50;4.00;;;;;;;;;;774482;180;918821;-61
2022/02/11 14:30:12;;;;;;;4.90;2.17;;;;;;;;;;779563;180;922695;-62
2022/02/11 14:32:38;;;;;;;3.73;2.77;;;;;;;;;;773790;179;919262;-62
2022/02/11 14:35:04;;;;;;;2.87;2.10;;;;;;;;;;763749;180;923098;-62
2022/02/11 14:37:30;;;;;;;3.80;2.03;;;;;;;;;;773675;178;919689;-61
2022/02/11 14:39:55;;;;;;;2.93;2.17;;;;;;;;;;774304;180;919071;-63
2022/02/11 14:42:21;;;;;;;2.57;1.93;;;;;;;;;;773392;179;918976;-60
2022/02/11 14:44:47;;;;;;;3.60;1.87;;;;;;;;;;776151;180;919901;-63
2022/02/11 14:47:13;;;;;;;3.23;2.00;;;;;;;;;;778822;180;918117;-62
2022/02/11 14:49:39;;;;;;;2.63;1.77;;;;;;;;;;763409;179;920228;-62
2022/02/11 14:52:05;;;;;;;2.92;2.30;;;;;;;;;;756153;181;920448;-61
2022/02/11 14:54:32;;;;;;;2.80;1.63;;;;;;;;;;776330;181;919642;-62
2022/02/11 14:56:57;;;;;;;3.50;2.03;;;;;;;;;;769657;178;920999;-63
2022/02/11 14:59:23;;;;;;;3.57;2.27;;;;;;;;;;772843;178;920509;-62
2022/02/11 15:01:48;;;;;;;3.77;2.63;;;;;;;;;;762736;180;916165;-63
2022/02/11 15:04:15;;;;;;;3.80;2.07;;;;;;;;;;778143;179;915717;-62
2022/02/11 15:06:40;;;;;;;2.50;1.83;;;;;;;;;;774319;178;919397;-62
2022/02/11 15:09:06;;;;;;;3.80;2.03;;;;;;;;;;772808;177;920213;-62
2022/02/11 15:11:32;;;;;;;2.87;1.97;;;;;;;;;;777876;180;920789;-61
2022/02/11 15:13:58;;;;;;;3.77;2.47;;;;;;;;;;775981;178;918495;-62
2022/02/11 15:16:24;;;;;;;4.90;2.37;;;;;;;;;;773843;178;918661;-62
2022/02/11 15:18:50;;;;;;;4.93;3.10;;;;;;;;;;776756;179;1021860;-63
2022/02/11 15:21:15;;;;;;;6.67;2.60;;;;;;;;;;758658;177;2351409;-62
2022/02/11 15:23:41;;;;;;;3.20;2.53;;;;;;;;;;771075;180;919771;-62
2022/02/11 15:26:07;;;;;;;5.40;1.77;;;;;;;;;;767733;180;917059;-62
2022/02/11 15:28:33;;;;;;;3.77;2.00;;;;;;;;;;775122;180;916844;-62
2022/02/11 15:30:59;;;;;;;2.67;1.83;;;;;;;;;;773918;177;919231;-61
2022/02/11 15:33:25;;;;;;;3.07;1.80;;;;;;;;;;775570;178;919467;-63
2022/02/11 15:35:51;;;;;;;4.03;2.10;;;;;;;;;;778683;177;919098;-62
2022/02/11 15:38:16;;;;;;;3.17;1.70;;;;;;;;;;773882;180;918911;-63
2022/02/11 15:40:42;;;;;;;3.45;1.65;;;;;;;;;;775819;177;919253;-62
2022/02/11 15:43:08;;;;;;;6.20;2.60;;;;;;;;;;776422;179;919405;-61
2022/02/11 15:45:34;;;;;;;3.80;2.03;;;;;;;;;;774228;180;920184;-62
2022/02/11 15:48:00;;;;;;;3.30;1.92;;;;;;;;;;773670;180;918465;-63
2022/02/11 15:50:26;;;;;;;2.40;1.57;;;;;;;;;;764090;180;918328;-62
2022/02/11 15:52:52;;;;;;;5.13;2.17;;;;;;;;;;763784;181;919921;-63
2022/02/11 15:55:17;;;;;;;2.97;1.70;;;;;;;;;;771342;178;918971;-62
2022/02/11 15:57:43;;;;;;;4.67;1.97;;;;;;;;;;770284;180;1021257;-61
2022/02/11 16:00:09;;;;;;;3.63;2.00;;;;;;;;;;778113;180;919352;-62
2022/02/11 16:02:35;;;;;;;6.73;2.80;;;;;;;;;;772835;180;919122;-62
2022/02/11 16:05:01;;;;;;;3.12;1.70;;;;;;;;;;770935;180;919553;-61
2022/02/11 16:07:28;;;;;;;4.93;1.80;;;;;;;;;;775918;178;918921;-62
2022/02/11 16:09:54;;;;;;;4.20;2.23;;;;;;;;;;770212;180;918480;-62
2022/02/11 16:12:20;;;;;;;3.70;1.87;;;;;;;;;;770986;181;920339;-61
2022/02/11 16:14:45;;;;;;;3.70;2.03;;;;;;;;;;777145;180;919005;-61
2022/02/11 16:17:11;;;;;;;3.50;2.37;;;;;;;;;;771408;180;930427;-62
2022/02/11 16:19:37;;;;;;;3.63;2.00;;;;;;;;;;769919;179;919367;-62
2022/02/11 16:22:04;;;;;;;6.80;3.40;;;;;;;;;;770308;178;919256;-61
2022/02/11 16:24:29;;;;;;;9.13;4.47;;;;;;;;;;776398;180;929029;-62
2022/02/11 16:26:55;;;;;;;4.20;2.20;;;;;;;;;;772929;180;919370;-62
2022/02/11 16:29:21;;;;;;;4.50;2.33;;;;;;;;;;770673;178;919603;-61
2022/02/11 16:31:49;;;;;;;4.30;1.80;;;;;;;;;;775432;181;921313;-62
2022/02/11 16:34:12;;;;;;;5.87;1.97;;;;;;;;;;775100;180;624953;-61
2022/02/11 16:36:42;;;;;;;5.35;3.20;;;;;;;;;;771106;180;919561;-61
2022/02/11 16:39:04;;;;;;;5.63;2.97;;;;;;;;;;772740;180;917068;-63
2022/02/11 16:41:30;;;;;;;7.53;2.40;;;;;;;;;;762697;181;923723;-62
2022/02/11 16:43:56;;;;;;;4.00;2.47;;;;;;;;;;771367;177;917330;-61
2022/02/11 16:46:22;;;;;;;5.83;2.43;;;;;;;;;;772505;180;922487;-61
2022/02/11 16:48:48;;;;;;;7.40;3.23;;;;;;;;;;770208;180;915268;-62
2022/02/11 16:51:13;;;;;;;8.57;3.27;;;;;;;;;;761987;181;919575;-62
2022/02/11 16:53:39;;;;;;;3.90;2.60;;;;;;;;;;772659;178;1022072;-62
2022/02/11 16:56:05;;;;;;;5.80;2.93;;;;;;;;;;771526;180;1838977;-61
2022/02/11 16:58:31;;;;;;;8.10;4.50;;;;;;;;;;773506;180;919178;-61